Time;durP1;ratioP1;P1;durP2;ratioP2;P2;SDS_P1;SDS_P2;PMS_P1;PMS_P2;Temp;Humidity;BMP_temperature;BMP_pressure;BME280_temperature;BME280_humidity;BME280_pressure;Samples;Min_cycle;Max_cycle;Signal;HPM_P1;HPM_P2
2023/04/14 00:02:19;;;;;;;17.38;15.60;;;22.60;72.60;;;;;;6357355;27;89197;-71
2023/04/14 00:05:22;;;;;;;16.77;15.15;;;22.60;72.60;;;;;;6345992;27;89614;-72
2023/04/14 00:08:25;;;;;;;17.67;15.13;;;22.60;72.50;;;;;;6346479;27;87774;-73
2023/04/14 00:11:27;;;;;;;16.48;14.88;;;22.60;72.50;;;;;;6354210;27;88707;-73
2023/04/14 00:14:29;;;;;;;17.23;15.50;;;22.60;72.50;;;;;;6345817;27;89362;-72
2023/04/14 00:17:31;;;;;;;17.05;15.32;;;22.60;72.60;;;;;;6346875;27;88939;-72
2023/04/14 00:20:33;;;;;;;17.60;15.82;;;22.50;72.40;;;;;;6356594;27;90030;-72
2023/04/14 00:23:36;;;;;;;16.63;15.02;;;22.50;72.50;;;;;;6348981;27;89375;-73
2023/04/14 00:26:38;;;;;;;16.23;14.60;;;22.60;72.50;;;;;;6347281;27;89139;-73
2023/04/14 00:29:40;;;;;;;16.63;14.93;;;22.50;72.50;;;;;;6347523;27;88058;-71
2023/04/14 00:32:42;;;;;;;16.85;15.15;;;22.50;72.40;;;;;;6346708;27;89041;-73
2023/04/14 00:35:44;;;;;;;16.52;14.90;;;22.50;72.30;;;;;;6358171;27;89068;-72
2023/04/14 00:38:48;;;;;;;17.30;15.60;;;22.50;72.40;;;;;;6352414;27;89021;-72
2023/04/14 00:41:50;;;;;;;16.70;15.02;;;22.50;72.40;;;;;;6353364;27;88273;-72
2023/04/14 00:44:52;;;;;;;17.10;15.40;;;22.50;72.40;;;;;;6345342;27;89958;-72
2023/04/14 00:47:55;;;;;;;17.45;15.68;;;22.50;72.40;;;;;;6346147;27;89225;-72
2023/04/14 00:50:57;;;;;;;17.25;15.48;;;22.50;72.40;;;;;;6351205;27;89010;-72
2023/04/14 00:54:02;;;;;;;17.00;15.30;;;22.50;72.40;;;;;;6349468;27;89046;-72
2023/04/14 00:57:06;;;;;;;17.27;15.55;;;22.50;72.40;;;;;;6343253;27;87836;-72
2023/04/14 01:00:10;;;;;;;17.13;15.43;;;22.40;72.30;;;;;;6353017;27;89195;-72
2023/04/14 01:03:12;;;;;;;16.42;14.73;;;22.50;72.50;;;;;;6350201;27;89238;-72
2023/04/14 01:06:14;;;;;;;17.45;15.65;;;22.50;72.50;;;;;;6340647;27;89365;-72
2023/04/14 01:09:17;;;;;;;16.20;14.60;;;22.50;72.40;;;;;;6346726;27;89086;-72
2023/04/14 01:12:28;;;;;;;15.27;13.68;;;22.40;72.30;;;;;;6350570;27;88326;-73
2023/04/14 01:15:36;;;;;;;16.33;14.63;;;22.40;72.30;;;;;;6354249;27;89127;-71
2023/04/14 01:18:47;;;;;;;15.70;14.10;;;22.40;72.30;;;;;;6356009;27;89101;-72
2023/04/14 01:21:54;;;;;;;16.77;15.05;;;22.40;72.30;;;;;;6339939;27;88898;-71
2023/04/14 01:25:22;;;;;;;15.88;14.27;;;22.40;72.30;;;;;;6309279;27;88026;-72
2023/04/14 01:28:40;;;;;;;15.55;13.95;;;22.40;72.30;;;;;;6352139;27;89232;-72
2023/04/14 01:31:46;;;;;;;16.50;14.90;;;22.40;72.30;;;;;;6343140;27;89153;-72
2023/04/14 01:34:53;;;;;;;15.10;13.60;;;22.30;72.30;;;;;;6351302;27;89348;-72
2023/04/14 01:38:00;;;;;;;14.95;13.50;;;22.30;72.30;;;;;;6340009;27;89035;-72
2023/04/14 01:41:05;;;;;;;15.02;13.52;;;22.30;72.30;;;;;;6349173;27;90163;-72
2023/04/14 01:44:09;;;;;;;16.20;14.60;;;22.40;72.30;;;;;;6334269;27;87236;-72
2023/04/14 01:47:15;;;;;;;15.30;13.77;;;22.40;72.30;;;;;;6348187;27;89067;-71
2023/04/14 01:50:18;;;;;;;14.45;13.05;;;22.30;73.10;;;;;;6348552;27;89398;-72
2023/04/14 01:53:20;;;;;;;14.63;13.23;;;22.40;72.30;;;;;;6342145;27;90029;-73
2023/04/14 01:56:23;;;;;;;15.00;13.50;;;22.30;72.20;;;;;;6337292;27;89018;-72
2023/04/14 01:59:26;;;;;;;15.15;13.55;;;22.30;72.20;;;;;;6338485;27;89265;-73
2023/04/14 02:02:30;;;;;;;14.05;12.70;;;22.40;72.30;;;;;;6345449;27;89093;-72
2023/04/14 02:05:38;;;;;;;13.77;12.48;;;22.30;72.20;;;;;;6346147;27;89157;-72
2023/04/14 02:08:41;;;;;;;14.38;12.98;;;22.30;72.20;;;;;;6347699;27;88932;-72
2023/04/14 02:11:44;;;;;;;13.18;11.88;;;22.30;72.30;;;;;;6344019;27;89120;-73
2023/04/14 02:14:48;;;;;;;13.88;12.57;;;22.30;72.20;;;;;;6337311;27;87229;-72
2023/04/14 02:17:52;;;;;;;13.10;11.80;;;22.30;72.20;;;;;;6342674;27;89266;-73
2023/04/14 02:20:56;;;;;;;13.43;12.13;;;22.30;72.20;;;;;;6331697;27;91045;-74
2023/04/14 02:23:58;;;;;;;13.55;12.25;;;22.30;72.20;;;;;;6333432;27;90083;-73
2023/04/14 02:27:07;;;;;;;12.38;11.18;;;22.30;72.20;;;;;;6345277;27;89114;-73
2023/04/14 02:30:13;;;;;;;12.63;11.43;;;22.30;72.20;;;;;;6345598;27;89449;-72
2023/04/14 02:33:21;;;;;;;13.40;12.00;;;22.30;72.10;;;;;;6346974;27;89093;-74
2023/04/14 02:36:28;;;;;;;13.13;11.73;;;22.30;72.20;;;;;;6346658;27;89056;-72
2023/04/14 02:39:33;;;;;;;12.02;10.82;;;22.20;72.10;;;;;;6351801;27;89155;-73
2023/04/14 02:42:38;;;;;;;12.38;11.18;;;22.30;72.20;;;;;;6355918;27;89331;-73
2023/04/14 02:45:44;;;;;;;11.90;10.80;;;22.20;72.10;;;;;;6358780;27;87520;-73
2023/04/14 02:48:49;;;;;;;12.25;10.95;;;22.30;72.20;;;;;;6344792;27;89032;-73
2023/04/14 02:51:54;;;;;;;11.80;10.55;;;22.20;72.00;;;;;;6346968;27;88818;-72
2023/04/14 02:54:57;;;;;;;12.15;10.73;;;22.20;72.10;;;;;;6333656;27;90464;-72
2023/04/14 02:58:00;;;;;;;11.73;10.55;;;22.20;72.10;;;;;;6347164;27;89123;-72
2023/04/14 03:01:02;;;;;;;11.70;10.52;;;22.20;72.00;;;;;;6345138;27;88499;-72
2023/04/14 03:04:06;;;;;;;11.13;10.02;;;22.20;72.00;;;;;;6338521;27;87929;-73
2023/04/14 03:07:11;;;;;;;11.23;10.13;;;22.20;72.00;;;;;;6353139;27;89145;-73
2023/04/14 03:10:14;;;;;;;11.95;10.63;;;22.20;72.00;;;;;;6349699;27;89097;-73
2023/04/14 03:13:17;;;;;;;10.65;9.65;;;22.30;72.00;;;;;;6346856;27;89047;-73
2023/04/14 03:16:21;;;;;;;11.18;10.07;;;22.20;72.00;;;;;;6347658;27;89123;-73
2023/04/14 03:19:26;;;;;;;11.13;10.02;;;22.20;72.00;;;;;;6343744;27;88324;-73
2023/04/14 03:22:29;;;;;;;10.95;9.85;;;22.20;72.80;;;;;;6344321;27;89359;-72
2023/04/14 03:25:36;;;;;;;10.90;9.82;;;22.20;72.00;;;;;;6360150;27;90631;-71
2023/04/14 03:28:41;;;;;;;9.88;8.93;;;22.10;71.90;;;;;;6347134;27;89581;-72
2023/04/14 03:31:44;;;;;;;10.52;9.50;;;22.20;71.80;;;;;;6348579;27;89113;-72
2023/04/14 03:34:52;;;;;;;10.10;9.13;;;22.10;71.90;;;;;;6334876;27;89155;-72
2023/04/14 03:37:58;;;;;;;9.82;8.82;;;22.20;71.90;;;;;;6342922;27;89069;-72
2023/04/14 03:41:04;;;;;;;9.43;8.52;;;22.20;71.80;;;;;;6353757;27;89089;-72
2023/04/14 03:44:13;;;;;;;9.25;8.35;;;22.20;71.80;;;;;;6339291;27;89058;-72
2023/04/14 03:47:15;;;;;;;9.15;8.25;;;22.20;71.70;;;;;;6356532;27;88303;-72
2023/04/14 03:50:22;;;;;;;9.48;8.57;;;22.20;71.60;;;;;;6345299;27;89466;-72
2023/04/14 03:53:26;;;;;;;9.30;8.40;;;22.10;71.50;;;;;;6335262;27;89053;-72
2023/04/14 03:56:31;;;;;;;8.90;8.00;;;22.10;71.50;;;;;;6347738;27;90105;-72
2023/04/14 03:59:35;;;;;;;8.70;7.80;;;22.10;71.50;;;;;;6348386;27;89116;-72
2023/04/14 04:02:37;;;;;;;8.98;8.07;;;22.20;71.50;;;;;;6357691;27;89084;-72
2023/04/14 04:05:42;;;;;;;8.35;7.55;;;22.20;71.50;;;;;;6349440;27;89464;-73
2023/04/14 04:08:46;;;;;;;9.70;8.70;;;22.20;71.50;;;;;;6352194;27;89193;-72
2023/04/14 04:11:51;;;;;;;9.00;8.10;;;22.20;71.50;;;;;;6342009;27;89054;-73
2023/04/14 04:14:53;;;;;;;8.43;7.63;;;22.20;71.50;;;;;;6340372;27;88931;-71
2023/04/14 04:17:57;;;;;;;8.20;7.40;;;22.20;71.50;;;;;;6354617;27;87236;-72
2023/04/14 04:21:02;;;;;;;7.65;6.90;;;22.20;71.50;;;;;;6358402;27;89020;-72
2023/04/14 04:24:06;;;;;;;7.97;7.28;;;22.20;71.50;;;;;;6349384;27;88907;-72
2023/04/14 04:27:08;;;;;;;8.63;7.72;;;22.30;71.50;;;;;;6357716;27;88900;-73
2023/04/14 04:30:11;;;;;;;7.88;7.07;;;22.30;71.50;;;;;;6359772;27;88018;-72
2023/04/14 04:33:15;;;;;;;7.88;7.07;;;22.30;71.50;;;;;;6347695;27;89043;-73
2023/04/14 04:36:19;;;;;;;7.53;6.82;;;22.30;71.40;;;;;;6359344;27;92046;-72
2023/04/14 04:39:21;;;;;;;7.38;6.63;;;22.30;71.40;;;;;;6344449;27;89067;-72
2023/04/14 04:42:23;;;;;;;7.72;6.95;;;22.30;71.30;;;;;;6354330;27;89049;-72
2023/04/14 04:45:45;;;;;;;7.90;7.10;;;22.30;72.20;;;;;;6356797;27;89555;-73
2023/04/14 04:48:47;;;;;;;7.43;6.65;;;22.30;71.30;;;;;;6356809;27;88368;-72
2023/04/14 04:51:51;;;;;;;6.85;6.15;;;22.30;71.30;;;;;;6342405;27;89064;-72
2023/04/14 04:54:53;;;;;;;5.60;4.88;;;22.40;71.10;;;;;;6340455;27;89006;-72
2023/04/14 04:57:55;;;;;;;5.82;5.00;;;22.40;69.70;;;;;;6345918;27;89922;-72
2023/04/14 05:00:57;;;;;;;6.00;5.40;;;22.50;69.40;;;;;;6347158;27;89017;-72
2023/04/14 05:03:59;;;;;;;5.63;5.13;;;22.40;71.10;;;;;;6357270;27;89144;-70
2023/04/14 05:07:03;;;;;;;5.85;5.07;;;22.40;70.70;;;;;;6344393;27;89160;-70
2023/04/14 05:10:05;;;;;;;5.53;4.90;;;22.50;71.10;;;;;;6354401;27;89169;-70
2023/04/14 05:13:07;;;;;;;6.13;5.53;;;22.50;71.20;;;;;;6365718;27;89191;-70
2023/04/14 05:16:12;;;;;;;5.72;5.15;;;22.50;71.30;;;;;;6355177;27;88901;-70
2023/04/14 05:19:14;;;;;;;5.15;4.65;;;22.50;71.40;;;;;;6333751;27;88357;-71
2023/04/14 05:22:17;;;;;;;6.18;5.57;;;22.50;71.40;;;;;;6343903;27;89292;-71
2023/04/14 05:25:20;;;;;;;5.45;4.95;;;22.60;71.40;;;;;;6343294;27;89582;-70
2023/04/14 05:28:22;;;;;;;5.65;5.07;;;22.60;71.30;;;;;;6347401;27;89974;-71
2023/04/14 05:31:24;;;;;;;5.63;5.05;;;22.60;71.30;;;;;;6353451;27;89103;-72
2023/04/14 05:34:26;;;;;;;5.53;5.00;;;22.70;71.30;;;;;;6345966;27;89139;-72
2023/04/14 05:37:29;;;;;;;6.07;4.63;;;22.70;71.10;;;;;;6345950;27;89348;-71
2023/04/14 05:40:33;;;;;;;7.45;5.70;;;22.60;71.00;;;;;;6353794;27;89138;-72
2023/04/14 05:43:35;;;;;;;5.05;4.53;;;22.70;71.00;;;;;;6351152;27;87906;-73
2023/04/14 05:46:37;;;;;;;4.78;4.25;;;22.70;71.00;;;;;;6347504;27;89004;-71
2023/04/14 05:49:39;;;;;;;5.03;4.57;;;22.70;71.00;;;;;;6351165;27;88292;-71
2023/04/14 05:52:43;;;;;;;5.07;4.57;;;22.70;71.00;;;;;;6354317;27;89035;-72
2023/04/14 05:55:46;;;;;;;5.05;4.53;;;22.70;70.90;;;;;;6349776;27;89338;-72
2023/04/14 05:58:50;;;;;;;4.85;4.35;;;22.70;71.00;;;;;;6352335;27;89037;-72
2023/04/14 06:01:52;;;;;;;4.72;4.22;;;22.70;70.90;;;;;;6359710;27;89026;-71
2023/04/14 06:04:55;;;;;;;5.15;4.25;;;22.70;70.80;;;;;;6338699;27;89041;-72
2023/04/14 06:07:58;;;;;;;5.07;4.57;;;22.80;70.90;;;;;;6348862;27;89061;-70
2023/04/14 06:11:00;;;;;;;4.85;4.20;;;22.80;70.90;;;;;;6340044;27;88829;-72
2023/04/14 06:14:04;;;;;;;4.85;4.35;;;22.70;70.80;;;;;;6345435;27;88334;-71
2023/04/14 06:17:06;;;;;;;4.28;3.88;;;22.80;70.90;;;;;;6358959;27;89103;-72
2023/04/14 06:20:09;;;;;;;5.55;4.63;;;22.80;70.80;;;;;;6360925;27;88558;-72
2023/04/14 06:23:12;;;;;;;5.75;4.40;;;22.80;70.80;;;;;;6346611;27;89128;-70
2023/04/14 06:26:14;;;;;;;4.70;4.20;;;22.80;70.80;;;;;;6335112;27;89325;-72
2023/04/14 06:29:16;;;;;;;5.35;3.80;;;22.80;70.80;;;;;;6348894;27;89998;-71
2023/04/14 06:32:18;;;;;;;4.25;3.85;;;22.80;70.80;;;;;;6350750;27;89105;-72
2023/04/14 06:35:20;;;;;;;5.50;4.00;;;22.80;70.80;;;;;;6335053;27;88096;-72
2023/04/14 06:38:24;;;;;;;3.90;3.50;;;22.80;70.80;;;;;;6355834;27;89051;-72
2023/04/14 06:41:26;;;;;;;3.88;3.47;;;22.80;70.80;;;;;;6343945;27;89192;-71
2023/04/14 06:44:28;;;;;;;4.40;3.60;;;22.80;70.80;;;;;;6338370;27;89179;-72
2023/04/14 06:47:30;;;;;;;5.18;4.10;;;22.90;70.80;;;;;;6337144;27;89313;-72
2023/04/14 06:50:32;;;;;;;3.70;3.40;;;22.90;70.80;;;;;;6358943;27;88328;-71
2023/04/14 06:53:35;;;;;;;4.00;3.60;;;22.90;70.80;;;;;;6350563;27;89145;-71
2023/04/14 06:56:37;;;;;;;3.90;3.50;;;22.90;70.90;;;;;;6351088;27;89074;-72
2023/04/14 06:59:39;;;;;;;3.58;3.28;;;22.90;70.80;;;;;;6366696;27;90225;-71
2023/04/14 07:02:41;;;;;;;4.82;3.70;;;22.90;70.90;;;;;;6361024;27;88053;-71
2023/04/14 07:05:43;;;;;;;3.92;3.53;;;22.90;70.90;;;;;;6361366;27;91220;-72
2023/04/14 07:08:47;;;;;;;3.50;3.20;;;22.90;70.90;;;;;;6343631;27;87816;-71
2023/04/14 07:11:49;;;;;;;3.40;3.10;;;22.90;70.90;;;;;;6355590;27;89127;-71
2023/04/14 07:14:51;;;;;;;3.40;3.10;;;22.90;70.90;;;;;;6349675;27;89253;-71
2023/04/14 07:17:53;;;;;;;3.78;3.28;;;22.90;71.00;;;;;;6353871;27;88854;-71
2023/04/14 07:20:55;;;;;;;3.58;3.28;;;23.00;71.00;;;;;;6348554;27;88404;-71
2023/04/14 07:23:58;;;;;;;3.22;2.92;;;22.90;70.90;;;;;;6357978;27;88922;-72
2023/04/14 07:27:00;;;;;;;3.63;3.10;;;22.90;70.90;;;;;;6350479;27;89107;-72
2023/04/14 07:30:03;;;;;;;3.40;2.88;;;23.00;70.90;;;;;;6355104;27;90025;-71
2023/04/14 07:33:06;;;;;;;3.47;3.17;;;23.00;70.80;;;;;;6360133;27;89273;-72
2023/04/14 07:36:08;;;;;;;3.85;3.20;;;23.00;70.90;;;;;;6336660;27;89388;-71
2023/04/14 07:39:12;;;;;;;3.30;3.00;;;23.00;70.90;;;;;;6346100;27;89347;-72
2023/04/14 07:42:14;;;;;;;3.97;3.40;;;23.00;70.90;;;;;;6356864;27;89191;-71
2023/04/14 07:45:16;;;;;;;3.13;2.83;;;23.00;70.90;;;;;;6360427;27;89389;-71
2023/04/14 07:48:20;;;;;;;3.35;3.05;;;23.00;71.00;;;;;;6335263;27;88994;-72
2023/04/14 07:51:22;;;;;;;3.15;2.85;;;23.00;70.90;;;;;;6351181;27;88296;-72
2023/04/14 07:54:25;;;;;;;3.25;2.95;;;23.00;70.80;;;;;;6359491;27;89154;-72
2023/04/14 07:57:27;;;;;;;3.40;3.10;;;23.00;70.80;;;;;;6344470;27;89214;-72
2023/04/14 08:00:29;;;;;;;4.35;3.35;;;23.00;70.80;;;;;;6361089;27;89952;-71
2023/04/14 08:03:31;;;;;;;3.45;3.13;;;23.00;70.80;;;;;;6346070;27;88962;-71
2023/04/14 08:06:34;;;;;;;3.58;3.00;;;23.00;70.80;;;;;;6359134;27;89318;-71
2023/04/14 08:09:37;;;;;;;3.17;2.88;;;23.10;70.80;;;;;;6357711;27;89355;-71
2023/04/14 08:12:39;;;;;;;3.20;2.90;;;23.00;70.80;;;;;;6350531;27;87998;-70
2023/04/14 08:15:41;;;;;;;3.08;2.78;;;23.00;70.80;;;;;;6348531;27;89519;-69
2023/04/14 08:18:43;;;;;;;2.78;2.58;;;23.00;70.80;;;;;;6346261;27;88151;-71
2023/04/14 08:21:46;;;;;;;3.20;2.65;;;23.00;70.70;;;;;;6351848;27;88354;-71
2023/04/14 08:24:49;;;;;;;4.07;3.28;;;23.00;70.70;;;;;;6354598;27;89076;-71
2023/04/14 08:27:51;;;;;;;4.10;2.90;;;23.10;70.80;;;;;;6345086;27;89025;-71
2023/04/14 08:30:53;;;;;;;3.08;2.78;;;23.10;70.70;;;;;;6346364;27;89990;-70
2023/04/14 08:33:56;;;;;;;2.72;2.53;;;23.10;70.70;;;;;;6344842;27;89116;-71
2023/04/14 08:36:59;;;;;;;3.00;2.70;;;23.10;70.60;;;;;;6333545;27;89497;-70
2023/04/14 08:40:03;;;;;;;2.60;2.40;;;23.10;70.60;;;;;;6346414;27;89149;-71
2023/04/14 08:43:05;;;;;;;3.33;2.47;;;23.10;70.60;;;;;;6347915;27;89058;-70
2023/04/14 08:46:09;;;;;;;2.55;2.33;;;23.10;70.60;;;;;;6340655;27;89200;-70
2023/04/14 08:49:17;;;;;;;4.25;2.50;;;23.10;70.60;;;;;;6358550;27;89104;-70
2023/04/14 08:52:21;;;;;;;2.60;2.40;;;23.10;70.60;;;;;;6339976;27;88366;-70
2023/04/14 08:55:26;;;;;;;2.30;2.10;;;23.10;70.60;;;;;;6337659;27;89046;-70
2023/04/14 08:58:28;;;;;;;3.80;2.72;;;23.10;70.60;;;;;;6354676;27;87960;-71
2023/04/14 09:01:32;;;;;;;2.50;2.15;;;23.10;70.60;;;;;;6341427;27;90460;-70
2023/04/14 09:04:36;;;;;;;2.60;2.30;;;23.10;70.60;;;;;;6345157;27;89038;-70
2023/04/14 09:07:38;;;;;;;2.70;2.50;;;23.10;70.60;;;;;;6346938;27;89282;-71
2023/04/14 09:10:43;;;;;;;2.72;2.40;;;23.10;70.60;;;;;;6355662;27;87882;-71
2023/04/14 09:13:45;;;;;;;2.50;2.25;;;23.10;70.50;;;;;;6350171;27;89104;-70
2023/04/14 09:16:47;;;;;;;2.40;2.20;;;23.10;70.50;;;;;;6345419;27;89104;-70
2023/04/14 09:19:49;;;;;;;3.00;2.55;;;23.10;70.60;;;;;;6344176;27;89177;-71
2023/04/14 09:22:53;;;;;;;2.20;2.00;;;23.10;70.60;;;;;;6345397;27;88926;-71
2023/04/14 09:25:56;;;;;;;3.08;2.30;;;23.10;70.50;;;;;;6340050;27;89004;-70
2023/04/14 09:28:58;;;;;;;2.83;2.10;;;23.10;70.50;;;;;;6340061;27;89421;-70
2023/04/14 09:32:00;;;;;;;2.67;2.13;;;23.10;70.50;;;;;;6355220;27;90143;-71
2023/04/14 09:35:02;;;;;;;2.10;1.90;;;23.10;70.50;;;;;;6352236;27;89267;-71
2023/04/14 09:38:06;;;;;;;2.22;2.03;;;23.10;70.50;;;;;;6354447;27;89306;-70
2023/04/14 09:41:16;;;;;;;2.22;2.03;;;23.10;70.50;;;;;;6356178;27;88054;-70
2023/04/14 09:44:18;;;;;;;2.80;2.28;;;23.10;70.50;;;;;;6343504;27;89084;-70
2023/04/14 09:47:21;;;;;;;2.47;2.20;;;23.20;70.50;;;;;;6348927;27;89106;-70
2023/04/14 09:50:23;;;;;;;2.35;2.15;;;23.20;70.50;;;;;;6332573;27;89190;-71
2023/04/14 09:53:27;;;;;;;2.55;2.05;;;23.20;70.60;;;;;;6344460;27;88300;-71
2023/04/14 09:56:30;;;;;;;1.98;1.80;;;23.20;70.60;;;;;;6355912;27;89173;-72
2023/04/14 09:59:34;;;;;;;3.08;2.30;;;23.20;70.80;;;;;;6353839;27;89023;-70
2023/04/14 10:02:48;;;;;;;3.08;2.25;;;23.30;71.00;;;;;;6353054;27;89948;-71
2023/04/14 10:05:50;;;;;;;2.25;2.03;;;23.20;70.60;;;;;;6333119;27;90598;-71
2023/04/14 10:08:54;;;;;;;3.22;2.22;;;23.30;70.60;;;;;;6342781;27;88069;-70
2023/04/14 10:12:12;;;;;;;4.05;2.30;;;23.30;70.80;;;;;;6349980;27;89404;-71
2023/04/14 10:15:16;;;;;;;3.70;2.50;;;23.30;71.00;;;;;;6347504;27;89353;-70
2023/04/14 10:18:18;;;;;;;3.83;2.35;;;23.30;71.60;;;;;;6351605;27;87976;-71
2023/04/14 10:21:21;;;;;;;3.92;2.50;;;23.30;72.70;;;;;;6336634;27;89495;-71
2023/04/14 10:24:24;;;;;;;3.03;2.40;;;23.30;74.90;;;;;;6351053;27;87230;-70
2023/04/14 10:27:28;;;;;;;2.60;2.20;;;23.40;73.30;;;;;;6345425;27;89460;-71
2023/04/14 10:30:31;;;;;;;2.28;2.00;;;23.80;71.80;;;;;;6331932;27;90634;-70
2023/04/14 10:33:33;;;;;;;3.47;2.28;;;24.30;70.20;;;;;;6336915;27;90016;-71
2023/04/14 10:36:35;;;;;;;3.05;2.10;;;24.50;69.20;;;;;;6344573;27;89222;-70
2023/04/14 10:39:38;;;;;;;3.25;2.10;;;24.60;68.60;;;;;;6344320;27;89237;-71
2023/04/14 10:42:56;;;;;;;2.38;2.17;;;24.60;68.40;;;;;;6350284;27;89436;-70
2023/04/14 10:45:59;;;;;;;2.88;2.00;;;24.50;68.30;;;;;;6348121;27;89122;-71
2023/04/14 10:49:02;;;;;;;2.55;2.00;;;24.30;68.50;;;;;;6329009;27;89035;-70
2023/04/14 10:52:06;;;;;;;3.40;2.50;;;24.30;68.80;;;;;;6331119;27;88012;-71
2023/04/14 10:55:11;;;;;;;4.88;2.75;;;24.20;68.90;;;;;;6345700;27;88386;-70
2023/04/14 10:58:21;;;;;;;4.60;2.63;;;24.10;69.20;;;;;;6332328;27;89108;-71
2023/04/14 11:01:30;;;;;;;3.92;2.30;;;24.00;69.30;;;;;;6338858;27;88012;-71
2023/04/14 11:04:32;;;;;;;4.50;2.72;;;24.00;69.40;;;;;;6334580;27;89976;-71
2023/04/14 11:07:39;;;;;;;7.40;3.33;;;23.90;69.50;;;;;;6336086;27;87129;-70
2023/04/14 11:10:43;;;;;;;6.15;2.72;;;23.90;69.60;;;;;;6348446;27;89015;-71
2023/04/14 11:14:12;;;;;;;5.25;2.70;;;23.90;69.70;;;;;;6340940;27;89116;-71
2023/04/14 11:17:21;;;;;;;6.10;2.97;;;23.80;69.60;;;;;;6337167;27;89484;-71
2023/04/14 11:20:23;;;;;;;5.28;2.78;;;23.80;69.80;;;;;;6335706;27;87934;-71
2023/04/14 11:23:28;;;;;;;5.60;2.63;;;23.80;69.80;;;;;;6364119;27;88349;-71
2023/04/14 11:26:30;;;;;;;7.72;3.08;;;23.80;69.80;;;;;;6343812;27;87659;-70
2023/04/14 11:29:33;;;;;;;9.32;3.20;;;23.70;69.80;;;;;;6333954;27;89018;-71
2023/04/14 11:32:46;;;;;;;7.53;3.35;;;23.70;70.10;;;;;;6334801;27;89193;-72
2023/04/14 11:35:48;;;;;;;10.40;3.58;;;23.70;70.30;;;;;;6346568;27;89975;-71
2023/04/14 11:38:50;;;;;;;12.00;4.13;;;23.70;70.50;;;;;;6345844;27;89384;-71
2023/04/14 11:41:52;;;;;;;12.48;4.20;;;23.60;70.50;;;;;;6348001;27;89039;-70
2023/04/14 11:44:59;;;;;;;9.52;3.92;;;23.60;70.60;;;;;;6338975;27;89367;-70
2023/04/14 11:48:02;;;;;;;10.88;4.00;;;23.60;70.60;;;;;;6340957;27;89071;-71
2023/04/14 11:51:05;;;;;;;11.32;3.92;;;23.60;70.80;;;;;;6339563;27;89050;-71
2023/04/14 11:54:07;;;;;;;9.82;3.90;;;23.60;71.00;;;;;;6355260;27;87965;-70
2023/04/14 11:57:10;;;;;;;9.20;4.03;;;23.60;71.00;;;;;;6342933;27;88656;-70
2023/04/14 12:00:14;;;;;;;10.27;4.15;;;23.60;70.80;;;;;;6345027;27;87937;-69
2023/04/14 12:03:17;;;;;;;9.77;3.72;;;23.60;71.00;;;;;;6347021;27;89073;-69
2023/04/14 12:06:19;;;;;;;19.75;6.93;;;23.60;71.00;;;;;;6355664;27;90113;-70
2023/04/14 12:09:21;;;;;;;11.55;4.13;;;23.70;72.30;;;;;;6352820;27;88137;-69
2023/04/14 12:12:23;;;;;;;12.60;3.90;;;23.70;76.80;;;;;;6345327;27;89033;-69
2023/04/14 12:15:27;;;;;;;9.65;3.60;;;23.80;74.80;;;;;;6346003;27;89129;-69
2023/04/14 12:18:29;;;;;;;10.63;3.90;;;23.90;74.30;;;;;;6359389;27;87996;-70
2023/04/14 12:21:31;;;;;;;9.32;3.80;;;23.90;72.60;;;;;;6358189;27;88859;-69
2023/04/14 12:24:37;;;;;;;10.40;3.60;;;24.00;72.00;;;;;;6348081;27;89946;-69
2023/04/14 12:27:39;;;;;;;9.30;3.25;;;24.00;71.50;;;;;;6347500;27;88385;-69
2023/04/14 12:30:51;;;;;;;7.25;3.13;;;24.00;71.20;;;;;;6345534;27;89087;-69
2023/04/14 12:33:59;;;;;;;11.23;3.53;;;24.10;71.10;;;;;;6347002;27;88741;-70
2023/04/14 12:37:07;;;;;;;8.52;3.30;;;24.00;70.90;;;;;;6357948;27;90314;-69
2023/04/14 12:40:10;;;;;;;7.55;3.08;;;24.00;70.80;;;;;;6357329;27;88163;-69
2023/04/14 12:43:12;;;;;;;7.60;3.33;;;24.00;70.70;;;;;;6357658;27;89459;-69
2023/04/14 12:46:25;;;;;;;5.85;2.50;;;24.00;70.60;;;;;;6345389;27;89174;-69
2023/04/14 12:49:36;;;;;;;8.38;3.35;;;23.90;70.30;;;;;;6338191;27;88012;-70
2023/04/14 12:52:40;;;;;;;5.63;3.00;;;23.90;70.30;;;;;;6342571;27;87934;-69
2023/04/14 12:55:42;;;;;;;5.05;2.42;;;23.90;70.30;;;;;;6347847;27;89144;-69
2023/04/14 12:58:46;;;;;;;7.03;2.92;;;23.80;70.30;;;;;;6339432;27;88307;-69
2023/04/14 13:01:49;;;;;;;5.43;2.70;;;23.80;70.20;;;;;;6350003;27;87954;-69
2023/04/14 13:04:51;;;;;;;8.25;2.95;;;23.80;70.30;;;;;;6350208;27;89070;-69
2023/04/14 13:07:53;;;;;;;6.05;2.70;;;23.80;70.20;;;;;;6340820;27;90146;-69
2023/04/14 13:10:55;;;;;;;5.18;2.42;;;23.80;70.20;;;;;;6355532;27;89351;-69
2023/04/14 13:13:58;;;;;;;5.43;2.40;;;23.80;70.10;;;;;;6346655;27;89398;-69
2023/04/14 13:17:01;;;;;;;5.85;2.65;;;23.80;70.10;;;;;;6359091;27;89101;-70
2023/04/14 13:20:03;;;;;;;4.97;2.38;;;23.80;70.00;;;;;;6357510;27;89339;-69
2023/04/14 13:23:05;;;;;;;5.68;2.60;;;23.80;70.00;;;;;;6355212;27;88106;-69
2023/04/14 13:26:07;;;;;;;4.22;2.22;;;23.80;70.00;;;;;;6351852;27;89030;-70
2023/04/14 13:29:11;;;;;;;5.32;2.40;;;23.70;69.80;;;;;;6333459;27;88731;-69
2023/04/14 13:32:15;;;;;;;4.43;2.40;;;23.80;69.90;;;;;;6342716;27;89129;-70
2023/04/14 13:35:17;;;;;;;4.45;2.17;;;23.70;69.80;;;;;;6333337;27;89066;-70
2023/04/14 13:38:19;;;;;;;4.68;2.40;;;23.70;69.80;;;;;;6338904;27;90076;-69
2023/04/14 13:41:22;;;;;;;4.43;2.47;;;23.70;69.80;;;;;;6355625;27;89261;-69
2023/04/14 13:44:24;;;;;;;4.25;2.30;;;23.70;69.70;;;;;;6343633;27;89055;-70
2023/04/14 13:47:27;;;;;;;5.13;2.45;;;23.70;69.70;;;;;;6336237;27;89038;-70
2023/04/14 13:50:30;;;;;;;3.92;2.42;;;23.70;69.60;;;;;;6340388;27;88125;-70
2023/04/14 13:53:32;;;;;;;4.03;2.30;;;23.70;69.70;;;;;;6353795;27;89148;-69
2023/04/14 13:56:33;;;;;;;4.75;2.72;;;23.70;69.70;;;;;;6333896;27;89076;-70
2023/04/14 13:59:35;;;;;;;5.93;2.70;;;23.70;69.70;;;;;;6359129;27;88257;-70
2023/04/14 14:02:39;;;;;;;3.80;2.58;;;23.70;69.70;;;;;;6344579;27;89743;-70
2023/04/14 14:05:41;;;;;;;3.90;2.55;;;23.70;69.70;;;;;;6343113;27;89404;-70
2023/04/14 14:08:43;;;;;;;4.45;2.80;;;23.70;69.70;;;;;;6333628;27;89910;-70
2023/04/14 14:11:45;;;;;;;4.22;2.70;;;23.70;69.70;;;;;;6353620;27;88975;-70
2023/04/14 14:14:47;;;;;;;4.32;2.70;;;23.70;69.70;;;;;;6341986;27;88799;-70
2023/04/14 14:17:53;;;;;;;5.28;2.95;;;23.70;69.70;;;;;;6344471;27;88144;-70
2023/04/14 14:20:56;;;;;;;4.50;2.60;;;23.60;69.60;;;;;;6353215;27;89239;-71
2023/04/14 14:23:58;;;;;;;3.65;2.78;;;23.70;69.70;;;;;;6348326;27;89098;-70
2023/04/14 14:27:00;;;;;;;3.58;2.75;;;23.70;69.80;;;;;;6343401;27;87910;-70
2023/04/14 14:30:02;;;;;;;4.28;3.03;;;23.60;69.60;;;;;;6358088;27;87319;-69
2023/04/14 14:33:05;;;;;;;4.22;2.45;;;23.60;69.60;;;;;;6357124;27;88298;-70
2023/04/14 14:36:07;;;;;;;4.32;2.97;;;23.60;69.60;;;;;;6359070;27;89164;-70
2023/04/14 14:39:09;;;;;;;3.92;3.05;;;23.60;69.60;;;;;;6360257;27;89637;-70
2023/04/14 14:42:11;;;;;;;4.82;3.47;;;23.60;69.60;;;;;;6359287;27;89147;-70
2023/04/14 14:45:13;;;;;;;4.53;3.17;;;23.60;69.70;;;;;;6349180;27;89143;-70
2023/04/14 14:48:16;;;;;;;5.32;3.15;;;23.60;69.60;;;;;;6348680;27;89076;-70
2023/04/14 14:51:18;;;;;;;4.07;3.00;;;23.60;69.60;;;;;;6354779;27;89158;-70
2023/04/14 14:54:20;;;;;;;4.60;3.40;;;23.60;69.60;;;;;;6361839;27;89115;-70
2023/04/14 14:57:22;;;;;;;4.82;3.03;;;23.60;69.60;;;;;;6340842;27;89139;-71
2023/04/14 15:00:24;;;;;;;4.63;3.13;;;23.60;69.60;;;;;;6336727;27;87222;-70
2023/04/14 15:03:28;;;;;;;4.32;3.25;;;23.60;69.60;;;;;;6353617;27;89138;-69
2023/04/14 15:06:30;;;;;;;4.78;3.05;;;23.60;69.60;;;;;;6346964;27;89702;-70
2023/04/14 15:09:32;;;;;;;4.15;3.00;;;23.60;69.60;;;;;;6348676;27;89180;-70
2023/04/14 15:12:34;;;;;;;5.40;3.70;;;23.60;69.60;;;;;;6335110;27;88092;-70
2023/04/14 15:15:36;;;;;;;4.63;3.20;;;23.60;69.60;;;;;;6335777;27;90735;-69
2023/04/14 15:18:40;;;;;;;4.80;3.40;;;23.60;69.70;;;;;;6336766;27;89261;-70
2023/04/14 15:21:43;;;;;;;3.95;3.10;;;23.60;69.60;;;;;;6342800;27;88167;-70
2023/04/14 15:24:45;;;;;;;5.18;3.92;;;23.60;69.60;;;;;;6357518;27;89184;-70
2023/04/14 15:27:47;;;;;;;4.78;3.67;;;23.60;69.60;;;;;;6346303;27;89040;-70
2023/04/14 15:30:49;;;;;;;3.83;3.42;;;23.60;69.70;;;;;;6361047;27;88437;-69
2023/04/14 15:33:53;;;;;;;4.80;3.58;;;23.50;69.60;;;;;;6359496;27;88141;-69
2023/04/14 15:36:55;;;;;;;3.90;3.50;;;23.50;69.60;;;;;;6338461;27;89078;-69
2023/04/14 15:39:57;;;;;;;4.00;3.60;;;23.50;69.60;;;;;;6350573;27;89970;-69
2023/04/14 15:43:00;;;;;;;3.80;3.40;;;23.50;69.60;;;;;;6343138;27;89533;-70
2023/04/14 15:46:02;;;;;;;4.93;3.78;;;23.50;69.70;;;;;;6353962;27;88964;-69
2023/04/14 15:49:05;;;;;;;4.57;3.70;;;23.60;69.80;;;;;;6355781;27;88198;-70
2023/04/14 15:52:07;;;;;;;5.15;3.80;;;23.60;69.90;;;;;;6351850;27;89053;-69